sensor_id;sensor_type;location;lat;lon;timestamp;temperature;humidity
3023;DHT22;1521;53.584;9.938;2023-02-28T00:00:39;3.60;1.00
3023;DHT22;1521;53.584;9.938;2023-02-28T00:03:05;3.60;1.00
3023;DHT22;1521;53.584;9.938;2023-02-28T00:05:31;3.60;1.00
3023;DHT22;1521;53.584;9.938;2023-02-28T00:07:57;3.50;1.00
3023;DHT22;1521;53.584;9.938;2023-02-28T00:10:26;3.60;1.00
3023;DHT22;1521;53.584;9.938;2023-02-28T00:12:53;3.60;1.00
3023;DHT22;1521;53.584;9.938;2023-02-28T00:15:19;3.70;1.00
3023;DHT22;1521;53.584;9.938;2023-02-28T00:17:45;3.60;1.00
3023;DHT22;1521;53.584;9.938;2023-02-28T00:20:12;3.60;1.00
3023;DHT22;1521;53.584;9.938;2023-02-28T00:22:45;3.60;1.00
3023;DHT22;1521;53.584;9.938;2023-02-28T00:25:13;3.60;1.00
3023;DHT22;1521;53.584;9.938;2023-02-28T00:27:40;3.60;1.00
3023;DHT22;1521;53.584;9.938;2023-02-28T00:30:07;3.60;1.00
3023;DHT22;1521;53.584;9.938;2023-02-28T00:32:33;3.50;1.00
3023;DHT22;1521;53.584;9.938;2023-02-28T00:35:00;3.50;1.00
3023;DHT22;1521;53.584;9.938;2023-02-28T00:37:25;3.40;1.00
3023;DHT22;1521;53.584;9.938;2023-02-28T00:39:51;3.30;1.00
3023;DHT22;1521;53.584;9.938;2023-02-28T00:42:17;3.40;1.00
3023;DHT22;1521;53.584;9.938;2023-02-28T00:44:43;3.40;1.00
3023;DHT22;1521;53.584;9.938;2023-02-28T00:47:08;3.30;1.00
3023;DHT22;1521;53.584;9.938;2023-02-28T00:49:34;3.30;1.00
3023;DHT22;1521;53.584;9.938;2023-02-28T00:51:59;3.20;1.00
3023;DHT22;1521;53.584;9.938;2023-02-28T00:54:25;3.20;1.00
3023;DHT22;1521;53.584;9.938;2023-02-28T00:56:50;3.20;1.00
3023;DHT22;1521;53.584;9.938;2023-02-28T00:59:17;3.10;1.00
3023;DHT22;1521;53.584;9.938;2023-02-28T01:01:44;3.10;1.00
3023;DHT22;1521;53.584;9.938;2023-02-28T01:04:10;3.00;1.00
3023;DHT22;1521;53.584;9.938;2023-02-28T01:06:36;3.00;1.00
3023;DHT22;1521;53.584;9.938;2023-02-28T01:09:03;3.00;1.00
3023;DHT22;1521;53.584;9.938;2023-02-28T01:11:30;3.00;1.00
3023;DHT22;1521;53.584;9.938;2023-02-28T01:13:55;3.00;1.00
3023;DHT22;1521;53.584;9.938;2023-02-28T01:16:21;2.90;1.00
3023;DHT22;1521;53.584;9.938;2023-02-28T01:18:47;2.90;1.00
3023;DHT22;1521;53.584;9.938;2023-02-28T01:21:16;2.90;1.00
3023;DHT22;1521;53.584;9.938;2023-02-28T01:23:42;2.80;1.00
3023;DHT22;1521;53.584;9.938;2023-02-28T01:26:18;2.80;1.00
3023;DHT22;1521;53.584;9.938;2023-02-28T01:28:44;2.80;1.00
3023;DHT22;1521;53.584;9.938;2023-02-28T01:31:10;2.80;1.00
3023;DHT22;1521;53.584;9.938;2023-02-28T01:33:36;2.70;1.00
3023;DHT22;1521;53.584;9.938;2023-02-28T01:36:09;2.70;1.00
3023;DHT22;1521;53.584;9.938;2023-02-28T01:38:35;2.70;1.00
3023;DHT22;1521;53.584;9.938;2023-02-28T01:41:02;2.60;1.00
3023;DHT22;1521;53.584;9.938;2023-02-28T01:46:10;2.60;1.00
3023;DHT22;1521;53.584;9.938;2023-02-28T01:48:40;2.60;1.00
3023;DHT22;1521;53.584;9.938;2023-02-28T01:51:15;2.60;1.00
3023;DHT22;1521;53.584;9.938;2023-02-28T01:53:45;2.50;1.00
3023;DHT22;1521;53.584;9.938;2023-02-28T01:56:13;2.50;1.00
3023;DHT22;1521;53.584;9.938;2023-02-28T01:58:47;2.50;1.00
3023;DHT22;1521;53.584;9.938;2023-02-28T02:01:13;2.50;1.00
3023;DHT22;1521;53.584;9.938;2023-02-28T02:03:58;2.50;1.00
3023;DHT22;1521;53.584;9.938;2023-02-28T02:06:37;2.50;1.00
3023;DHT22;1521;53.584;9.938;2023-02-28T02:09:03;2.50;1.00
3023;DHT22;1521;53.584;9.938;2023-02-28T02:11:29;2.50;1.00
3023;DHT22;1521;53.584;9.938;2023-02-28T02:14:12;2.50;1.00
3023;DHT22;1521;53.584;9.938;2023-02-28T02:27:59;2.70;1.00
3023;DHT22;1521;53.584;9.938;2023-02-28T02:30:54;2.70;1.00
3023;DHT22;1521;53.584;9.938;2023-02-28T02:39:40;2.70;1.00
3023;DHT22;1521;53.584;9.938;2023-02-28T02:42:16;2.70;1.00
3023;DHT22;1521;53.584;9.938;2023-02-28T02:44:56;2.60;1.00
3023;DHT22;1521;53.584;9.938;2023-02-28T02:47:26;2.60;1.00
3023;DHT22;1521;53.584;9.938;2023-02-28T02:49:55;2.60;1.00
3023;DHT22;1521;53.584;9.938;2023-02-28T02:52:27;2.50;1.00
3023;DHT22;1521;53.584;9.938;2023-02-28T02:54:56;2.50;1.00
3023;DHT22;1521;53.584;9.938;2023-02-28T02:57:27;2.40;1.00
3023;DHT22;1521;53.584;9.938;2023-02-28T02:59:56;2.40;1.00
3023;DHT22;1521;53.584;9.938;2023-02-28T03:02:22;2.40;1.00
3023;DHT22;1521;53.584;9.938;2023-02-28T03:04:52;2.30;1.00
3023;DHT22;1521;53.584;9.938;2023-02-28T03:07:19;2.20;1.00
3023;DHT22;1521;53.584;9.938;2023-02-28T03:09:52;2.20;1.00
3023;DHT22;1521;53.584;9.938;2023-02-28T03:12:18;2.00;1.00
3023;DHT22;1521;53.584;9.938;2023-02-28T03:15:08;2.00;1.00
3023;DHT22;1521;53.584;9.938;2023-02-28T03:20:41;1.90;1.00
3023;DHT22;1521;53.584;9.938;2023-02-28T03:23:31;1.80;1.00
3023;DHT22;1521;53.584;9.938;2023-02-28T03:26:16;1.80;1.00
3023;DHT22;1521;53.584;9.938;2023-02-28T03:29:03;1.70;1.00
3023;DHT22;1521;53.584;9.938;2023-02-28T03:31:37;1.70;1.00
3023;DHT22;1521;53.584;9.938;2023-02-28T03:34:34;1.60;1.00
3023;DHT22;1521;53.584;9.938;2023-02-28T03:37:15;1.70;1.00
3023;DHT22;1521;53.584;9.938;2023-02-28T03:39:49;1.70;1.00
3023;DHT22;1521;53.584;9.938;2023-02-28T03:42:22;1.70;1.00
3023;DHT22;1521;53.584;9.938;2023-02-28T03:45:04;1.60;1.00
3023;DHT22;1521;53.584;9.938;2023-02-28T03:53:00;1.30;1.00
3023;DHT22;1521;53.584;9.938;2023-02-28T03:55:32;1.30;1.00
3023;DHT22;1521;53.584;9.938;2023-02-28T03:58:12;1.20;1.00
3023;DHT22;1521;53.584;9.938;2023-02-28T04:00:46;1.20;1.00
3023;DHT22;1521;53.584;9.938;2023-02-28T04:03:12;1.10;1.00
3023;DHT22;1521;53.584;9.938;2023-02-28T04:05:53;1.00;1.00
3023;DHT22;1521;53.584;9.938;2023-02-28T04:08:19;1.10;1.00
3023;DHT22;1521;53.584;9.938;2023-02-28T04:10:50;1.00;1.00
3023;DHT22;1521;53.584;9.938;2023-02-28T04:13:18;1.00;1.00
3023;DHT22;1521;53.584;9.938;2023-02-28T04:15:44;0.90;1.00
3023;DHT22;1521;53.584;9.938;2023-02-28T04:18:09;0.90;1.00
3023;DHT22;1521;53.584;9.938;2023-02-28T04:20:35;0.80;1.00
3023;DHT22;1521;53.584;9.938;2023-02-28T04:23:00;0.80;1.00
3023;DHT22;1521;53.584;9.938;2023-02-28T04:25:26;0.70;1.00
3023;DHT22;1521;53.584;9.938;2023-02-28T04:27:51;0.60;1.00
3023;DHT22;1521;53.584;9.938;2023-02-28T04:30:17;0.50;1.00
3023;DHT22;1521;53.584;9.938;2023-02-28T04:32:43;0.40;1.00
3023;DHT22;1521;53.584;9.938;2023-02-28T04:35:08;0.40;1.00
3023;DHT22;1521;53.584;9.938;2023-02-28T04:37:34;0.30;1.00
3023;DHT22;1521;53.584;9.938;2023-02-28T04:40:02;0.20;1.00
3023;DHT22;1521;53.584;9.938;2023-02-28T04:42:28;0.10;13.70
3023;DHT22;1521;53.584;9.938;2023-02-28T04:45:03;0.00;26.90
3023;DHT22;1521;53.584;9.938;2023-02-28T04:47:29;0.00;45.90
3023;DHT22;1521;53.584;9.938;2023-02-28T04:49:55;-0.10;46.30
3023;DHT22;1521;53.584;9.938;2023-02-28T04:52:20;-0.20;39.80
3023;DHT22;1521;53.584;9.938;2023-02-28T04:54:46;-0.20;50.10
3023;DHT22;1521;53.584;9.938;2023-02-28T04:57:11;-0.20;82.30
3023;DHT22;1521;53.584;9.938;2023-02-28T04:59:37;-0.20;99.90
3023;DHT22;1521;53.584;9.938;2023-02-28T05:02:03;-0.30;99.90
3023;DHT22;1521;53.584;9.938;2023-02-28T05:04:35;-0.30;99.90
3023;DHT22;1521;53.584;9.938;2023-02-28T05:07:01;-0.30;99.90
3023;DHT22;1521;53.584;9.938;2023-02-28T05:09:28;-0.30;99.90
3023;DHT22;1521;53.584;9.938;2023-02-28T05:11:54;-0.30;99.90
3023;DHT22;1521;53.584;9.938;2023-02-28T05:14:20;-0.30;99.90
3023;DHT22;1521;53.584;9.938;2023-02-28T05:16:46;-0.30;99.90
3023;DHT22;1521;53.584;9.938;2023-02-28T05:19:11;-0.40;99.90
3023;DHT22;1521;53.584;9.938;2023-02-28T05:21:39;-0.40;99.90
3023;DHT22;1521;53.584;9.938;2023-02-28T05:24:08;-0.40;99.90
3023;DHT22;1521;53.584;9.938;2023-02-28T05:26:36;-0.50;99.90
3023;DHT22;1521;53.584;9.938;2023-02-28T05:29:02;-0.50;99.90
3023;DHT22;1521;53.584;9.938;2023-02-28T05:31:27;-0.50;99.90
3023;DHT22;1521;53.584;9.938;2023-02-28T05:33:53;-0.60;99.90
3023;DHT22;1521;53.584;9.938;2023-02-28T05:36:19;-0.60;99.90
3023;DHT22;1521;53.584;9.938;2023-02-28T05:38:49;-0.60;99.90
3023;DHT22;1521;53.584;9.938;2023-02-28T05:41:15;-0.60;99.90
3023;DHT22;1521;53.584;9.938;2023-02-28T05:43:41;-0.60;99.90
3023;DHT22;1521;53.584;9.938;2023-02-28T05:46:09;-0.60;99.90
3023;DHT22;1521;53.584;9.938;2023-02-28T05:48:36;-0.70;99.90
3023;DHT22;1521;53.584;9.938;2023-02-28T05:51:02;-0.70;99.90
3023;DHT22;1521;53.584;9.938;2023-02-28T05:53:28;-0.70;99.90
3023;DHT22;1521;53.584;9.938;2023-02-28T05:55:54;-0.70;99.90
3023;DHT22;1521;53.584;9.938;2023-02-28T05:58:20;-0.80;99.90
3023;DHT22;1521;53.584;9.938;2023-02-28T06:00:46;-0.80;99.90
3023;DHT22;1521;53.584;9.938;2023-02-28T06:03:12;-0.80;99.90
3023;DHT22;1521;53.584;9.938;2023-02-28T06:05:37;-0.90;99.90
3023;DHT22;1521;53.584;9.938;2023-02-28T06:08:04;-0.90;99.90
3023;DHT22;1521;53.584;9.938;2023-02-28T06:10:31;-0.90;99.90
3023;DHT22;1521;53.584;9.938;2023-02-28T06:13:03;-0.90;99.90
3023;DHT22;1521;53.584;9.938;2023-02-28T06:15:29;-0.90;99.90
3023;DHT22;1521;53.584;9.938;2023-02-28T06:17:54;-1.00;99.90
3023;DHT22;1521;53.584;9.938;2023-02-28T06:20:22;-1.00;1.00
3023;DHT22;1521;53.584;9.938;2023-02-28T06:22:48;-1.00;1.00
3023;DHT22;1521;53.584;9.938;2023-02-28T06:25:16;-1.00;1.00
3023;DHT22;1521;53.584;9.938;2023-02-28T06:27:41;-1.00;1.00
3023;DHT22;1521;53.584;9.938;2023-02-28T06:30:09;-1.00;1.00
3023;DHT22;1521;53.584;9.938;2023-02-28T06:32:35;-0.90;1.00
3023;DHT22;1521;53.584;9.938;2023-02-28T06:35:01;-0.90;1.00
3023;DHT22;1521;53.584;9.938;2023-02-28T06:37:27;-0.80;1.00
3023;DHT22;1521;53.584;9.938;2023-02-28T06:39:53;-0.80;1.00
3023;DHT22;1521;53.584;9.938;2023-02-28T06:42:21;-0.80;1.00
3023;DHT22;1521;53.584;9.938;2023-02-28T06:44:47;-0.70;1.00
3023;DHT22;1521;53.584;9.938;2023-02-28T06:47:13;-0.70;1.00
3023;DHT22;1521;53.584;9.938;2023-02-28T06:49:39;-0.60;1.00
3023;DHT22;1521;53.584;9.938;2023-02-28T06:52:05;-0.60;1.00
3023;DHT22;1521;53.584;9.938;2023-02-28T06:54:30;-0.50;1.00
3023;DHT22;1521;53.584;9.938;2023-02-28T06:56:57;-0.50;1.00
3023;DHT22;1521;53.584;9.938;2023-02-28T06:59:23;-0.40;1.00
3023;DHT22;1521;53.584;9.938;2023-02-28T07:01:49;-0.20;1.00
3023;DHT22;1521;53.584;9.938;2023-02-28T07:04:14;0.00;1.00
3023;DHT22;1521;53.584;9.938;2023-02-28T07:06:40;0.20;1.00
3023;DHT22;1521;53.584;9.938;2023-02-28T07:09:05;0.40;1.00
3023;DHT22;1521;53.584;9.938;2023-02-28T07:11:31;0.50;1.00
3023;DHT22;1521;53.584;9.938;2023-02-28T07:13:57;0.60;1.00
3023;DHT22;1521;53.584;9.938;2023-02-28T07:16:24;0.80;1.00
3023;DHT22;1521;53.584;9.938;2023-02-28T07:18:52;1.00;1.00
3023;DHT22;1521;53.584;9.938;2023-02-28T07:21:18;1.20;99.90
3023;DHT22;1521;53.584;9.938;2023-02-28T07:23:43;1.20;99.90
3023;DHT22;1521;53.584;9.938;2023-02-28T07:26:13;1.30;99.90
3023;DHT22;1521;53.584;9.938;2023-02-28T07:28:40;1.30;99.90
3023;DHT22;1521;53.584;9.938;2023-02-28T07:31:08;1.50;99.90
3023;DHT22;1521;53.584;9.938;2023-02-28T07:33:35;1.60;99.90
3023;DHT22;1521;53.584;9.938;2023-02-28T07:36:05;1.70;82.70
3023;DHT22;1521;53.584;9.938;2023-02-28T07:38:34;1.80;23.90
3023;DHT22;1521;53.584;9.938;2023-02-28T07:41:00;1.90;1.00
3023;DHT22;1521;53.584;9.938;2023-02-28T07:43:25;2.10;1.00
3023;DHT22;1521;53.584;9.938;2023-02-28T07:45:51;2.30;1.00
3023;DHT22;1521;53.584;9.938;2023-02-28T07:48:16;2.50;1.00
3023;DHT22;1521;53.584;9.938;2023-02-28T07:50:42;2.80;1.00
3023;DHT22;1521;53.584;9.938;2023-02-28T07:53:07;3.20;1.00
3023;DHT22;1521;53.584;9.938;2023-02-28T07:55:33;3.70;1.00
3023;DHT22;1521;53.584;9.938;2023-02-28T07:57:58;4.30;1.00
3023;DHT22;1521;53.584;9.938;2023-02-28T08:00:25;5.10;1.00
3023;DHT22;1521;53.584;9.938;2023-02-28T08:02:50;6.00;1.00
3023;DHT22;1521;53.584;9.938;2023-02-28T08:05:16;7.20;1.00
3023;DHT22;1521;53.584;9.938;2023-02-28T08:07:42;8.30;1.00
3023;DHT22;1521;53.584;9.938;2023-02-28T08:10:08;9.20;1.00
3023;DHT22;1521;53.584;9.938;2023-02-28T08:12:35;10.20;1.00
3023;DHT22;1521;53.584;9.938;2023-02-28T08:15:00;11.00;1.00
3023;DHT22;1521;53.584;9.938;2023-02-28T08:17:26;11.80;1.00
3023;DHT22;1521;53.584;9.938;2023-02-28T08:19:53;12.30;1.00
3023;DHT22;1521;53.584;9.938;2023-02-28T08:22:18;12.70;1.00
3023;DHT22;1521;53.584;9.938;2023-02-28T08:24:44;13.30;1.00
3023;DHT22;1521;53.584;9.938;2023-02-28T08:27:10;13.70;1.00
3023;DHT22;1521;53.584;9.938;2023-02-28T08:29:38;14.00;1.00
3023;DHT22;1521;53.584;9.938;2023-02-28T08:32:05;14.00;1.00
3023;DHT22;1521;53.584;9.938;2023-02-28T08:34:31;14.10;1.00
3023;DHT22;1521;53.584;9.938;2023-02-28T08:36:57;14.20;1.00
3023;DHT22;1521;53.584;9.938;2023-02-28T08:39:22;13.80;1.00
3023;DHT22;1521;53.584;9.938;2023-02-28T08:41:48;14.10;1.00
3023;DHT22;1521;53.584;9.938;2023-02-28T08:44:14;14.00;1.00
3023;DHT22;1521;53.584;9.938;2023-02-28T08:46:39;13.80;1.00
3023;DHT22;1521;53.584;9.938;2023-02-28T08:49:05;13.50;1.00
3023;DHT22;1521;53.584;9.938;2023-02-28T08:51:30;13.00;1.00
3023;DHT22;1521;53.584;9.938;2023-02-28T08:53:59;12.30;1.00
3023;DHT22;1521;53.584;9.938;2023-02-28T08:56:26;11.40;1.00
3023;DHT22;1521;53.584;9.938;2023-02-28T08:58:55;10.70;1.00
3023;DHT22;1521;53.584;9.938;2023-02-28T09:01:26;10.40;1.00
3023;DHT22;1521;53.584;9.938;2023-02-28T09:03:53;10.20;1.00
3023;DHT22;1521;53.584;9.938;2023-02-28T09:06:20;10.00;1.00
3023;DHT22;1521;53.584;9.938;2023-02-28T09:08:46;10.00;1.00
3023;DHT22;1521;53.584;9.938;2023-02-28T09:11:12;9.60;1.00
3023;DHT22;1521;53.584;9.938;2023-02-28T09:13:38;9.20;1.00
3023;DHT22;1521;53.584;9.938;2023-02-28T09:16:06;9.10;1.00
3023;DHT22;1521;53.584;9.938;2023-02-28T09:18:34;8.80;1.00
3023;DHT22;1521;53.584;9.938;2023-02-28T09:21:03;8.50;1.00
3023;DHT22;1521;53.584;9.938;2023-02-28T09:23:30;8.60;1.00
3023;DHT22;1521;53.584;9.938;2023-02-28T09:25:55;8.70;1.00
3023;DHT22;1521;53.584;9.938;2023-02-28T09:28:22;8.70;1.00
3023;DHT22;1521;53.584;9.938;2023-02-28T09:30:50;8.60;1.00
3023;DHT22;1521;53.584;9.938;2023-02-28T09:33:17;8.70;1.00
3023;DHT22;1521;53.584;9.938;2023-02-28T09:35:46;8.70;1.00
3023;DHT22;1521;53.584;9.938;2023-02-28T09:38:11;8.70;1.00
3023;DHT22;1521;53.584;9.938;2023-02-28T09:40:44;8.50;1.00
3023;DHT22;1521;53.584;9.938;2023-02-28T09:43:14;8.60;1.00
3023;DHT22;1521;53.584;9.938;2023-02-28T09:45:42;8.60;1.00
3023;DHT22;1521;53.584;9.938;2023-02-28T09:48:33;8.40;1.00
3023;DHT22;1521;53.584;9.938;2023-02-28T09:51:43;8.00;1.00
3023;DHT22;1521;53.584;9.938;2023-02-28T09:54:30;7.60;1.00
3023;DHT22;1521;53.584;9.938;2023-02-28T09:59:54;6.90;1.00
3023;DHT22;1521;53.584;9.938;2023-02-28T10:05:15;6.50;1.00
3023;DHT22;1521;53.584;9.938;2023-02-28T10:10:43;6.40;1.00
3023;DHT22;1521;53.584;9.938;2023-02-28T10:13:34;6.50;1.00
3023;DHT22;1521;53.584;9.938;2023-02-28T10:16:08;6.90;1.00
3023;DHT22;1521;53.584;9.938;2023-02-28T10:19:11;7.50;1.00
3023;DHT22;1521;53.584;9.938;2023-02-28T10:21:43;7.90;1.00
3023;DHT22;1521;53.584;9.938;2023-02-28T10:24:28;8.30;1.00
3023;DHT22;1521;53.584;9.938;2023-02-28T10:27:00;8.70;1.00
3023;DHT22;1521;53.584;9.938;2023-02-28T10:29:28;9.00;1.00
3023;DHT22;1521;53.584;9.938;2023-02-28T10:31:55;9.40;1.00
3023;DHT22;1521;53.584;9.938;2023-02-28T10:34:21;9.80;1.00
3023;DHT22;1521;53.584;9.938;2023-02-28T10:36:48;9.90;1.00
3023;DHT22;1521;53.584;9.938;2023-02-28T10:39:43;9.90;1.00
3023;DHT22;1521;53.584;9.938;2023-02-28T10:44:47;9.80;1.00
3023;DHT22;1521;53.584;9.938;2023-02-28T10:47:16;10.00;1.00
3023;DHT22;1521;53.584;9.938;2023-02-28T10:49:49;10.50;1.00
3023;DHT22;1521;53.584;9.938;2023-02-28T10:52:41;11.20;1.00
3023;DHT22;1521;53.584;9.938;2023-02-28T10:55:21;12.20;1.00
3023;DHT22;1521;53.584;9.938;2023-02-28T10:57:48;13.30;1.00
3023;DHT22;1521;53.584;9.938;2023-02-28T11:00:17;14.20;1.00
3023;DHT22;1521;53.584;9.938;2023-02-28T11:02:44;15.00;1.00
3023;DHT22;1521;53.584;9.938;2023-02-28T11:05:40;15.60;1.00
3023;DHT22;1521;53.584;9.938;2023-02-28T11:08:12;16.50;99.90
3023;DHT22;1521;53.584;9.938;2023-02-28T11:10:39;17.20;99.90
3023;DHT22;1521;53.584;9.938;2023-02-28T11:13:05;17.40;99.90
3023;DHT22;1521;53.584;9.938;2023-02-28T11:15:33;17.60;99.90
3023;DHT22;1521;53.584;9.938;2023-02-28T11:20:39;17.60;99.90
3023;DHT22;1521;53.584;9.938;2023-02-28T11:23:05;17.60;99.90
3023;DHT22;1521;53.584;9.938;2023-02-28T11:25:38;18.00;99.90
3023;DHT22;1521;53.584;9.938;2023-02-28T11:28:06;18.20;99.90
3023;DHT22;1521;53.584;9.938;2023-02-28T11:33:40;18.80;99.90
3023;DHT22;1521;53.584;9.938;2023-02-28T11:36:27;18.90;99.90
3023;DHT22;1521;53.584;9.938;2023-02-28T11:38:56;19.10;99.90
3023;DHT22;1521;53.584;9.938;2023-02-28T11:42:04;19.20;99.90
3023;DHT22;1521;53.584;9.938;2023-02-28T11:48:00;19.10;99.90
3023;DHT22;1521;53.584;9.938;2023-02-28T11:50:48;18.70;99.90
3023;DHT22;1521;53.584;9.938;2023-02-28T12:01:18;18.80;99.90
3023;DHT22;1521;53.584;9.938;2023-02-28T12:04:16;18.70;99.90
3023;DHT22;1521;53.584;9.938;2023-02-28T12:10:26;18.80;99.90
3023;DHT22;1521;53.584;9.938;2023-02-28T12:19:21;18.60;99.90
3023;DHT22;1521;53.584;9.938;2023-02-28T12:27:27;18.70;99.90
3023;DHT22;1521;53.584;9.938;2023-02-28T12:30:22;19.00;99.90
3023;DHT22;1521;53.584;9.938;2023-02-28T12:32:56;19.10;99.90
3023;DHT22;1521;53.584;9.938;2023-02-28T12:35:34;19.00;99.90
3023;DHT22;1521;53.584;9.938;2023-02-28T12:38:14;18.90;99.90
3023;DHT22;1521;53.584;9.938;2023-02-28T12:40:49;19.20;99.90
3023;DHT22;1521;53.584;9.938;2023-02-28T12:43:17;19.70;99.90
3023;DHT22;1521;53.584;9.938;2023-02-28T12:45:49;19.80;99.90
3023;DHT22;1521;53.584;9.938;2023-02-28T12:48:26;19.80;99.90
3023;DHT22;1521;53.584;9.938;2023-02-28T12:50:53;20.10;99.90
3023;DHT22;1521;53.584;9.938;2023-02-28T12:56:19;19.70;99.90
3023;DHT22;1521;53.584;9.938;2023-02-28T12:58:54;19.80;99.90
3023;DHT22;1521;53.584;9.938;2023-02-28T13:04:32;19.30;99.90
3023;DHT22;1521;53.584;9.938;2023-02-28T13:07:40;19.00;99.90
3023;DHT22;1521;53.584;9.938;2023-02-28T13:10:12;19.10;99.90
3023;DHT22;1521;53.584;9.938;2023-02-28T13:12:51;18.60;99.90
3023;DHT22;1521;53.584;9.938;2023-02-28T13:15:24;18.50;99.90
3023;DHT22;1521;53.584;9.938;2023-02-28T13:17:53;18.50;99.90
3023;DHT22;1521;53.584;9.938;2023-02-28T13:20:20;18.10;99.90
3023;DHT22;1521;53.584;9.938;2023-02-28T13:22:51;18.00;99.90
3023;DHT22;1521;53.584;9.938;2023-02-28T13:27:59;17.10;99.90
3023;DHT22;1521;53.584;9.938;2023-02-28T13:33:30;17.60;99.90
3023;DHT22;1521;53.584;9.938;2023-02-28T13:38:43;18.00;99.90
3023;DHT22;1521;53.584;9.938;2023-02-28T13:49:33;16.80;99.90
3023;DHT22;1521;53.584;9.938;2023-02-28T14:05:44;16.50;99.90
3023;DHT22;1521;53.584;9.938;2023-02-28T14:08:22;16.50;99.90
3023;DHT22;1521;53.584;9.938;2023-02-28T14:10:50;16.50;99.90
3023;DHT22;1521;53.584;9.938;2023-02-28T14:15:59;16.30;99.90
3023;DHT22;1521;53.584;9.938;2023-02-28T14:18:32;16.20;99.90
3023;DHT22;1521;53.584;9.938;2023-02-28T14:21:22;16.10;99.90
3023;DHT22;1521;53.584;9.938;2023-02-28T14:26:57;16.70;99.90
3023;DHT22;1521;53.584;9.938;2023-02-28T14:37:52;16.10;99.90
3023;DHT22;1521;53.584;9.938;2023-02-28T14:40:30;15.90;99.90
3023;DHT22;1521;53.584;9.938;2023-02-28T14:43:03;15.60;99.90
3023;DHT22;1521;53.584;9.938;2023-02-28T14:45:31;15.20;99.90
3023;DHT22;1521;53.584;9.938;2023-02-28T14:47:58;14.90;99.90
3023;DHT22;1521;53.584;9.938;2023-02-28T14:50:30;13.90;99.90
3023;DHT22;1521;53.584;9.938;2023-02-28T14:52:56;13.50;99.90
3023;DHT22;1521;53.584;9.938;2023-02-28T14:55:35;13.20;99.90
3023;DHT22;1521;53.584;9.938;2023-02-28T14:58:04;12.90;99.90
3023;DHT22;1521;53.584;9.938;2023-02-28T15:00:36;12.10;99.90
3023;DHT22;1521;53.584;9.938;2023-02-28T15:05:55;10.60;99.90
3023;DHT22;1521;53.584;9.938;2023-02-28T15:08:23;10.00;99.90
3023;DHT22;1521;53.584;9.938;2023-02-28T15:10:54;9.60;99.90
3023;DHT22;1521;53.584;9.938;2023-02-28T15:13:21;9.30;99.90
3023;DHT22;1521;53.584;9.938;2023-02-28T15:18:26;9.00;99.90
3023;DHT22;1521;53.584;9.938;2023-02-28T15:20:53;8.80;99.90
3023;DHT22;1521;53.584;9.938;2023-02-28T15:23:20;8.60;99.90
3023;DHT22;1521;53.584;9.938;2023-02-28T15:25:47;8.50;99.90
3023;DHT22;1521;53.584;9.938;2023-02-28T15:28:20;8.20;99.90
3023;DHT22;1521;53.584;9.938;2023-02-28T15:30:59;8.10;99.90
3023;DHT22;1521;53.584;9.938;2023-02-28T15:33:27;8.00;99.90
3023;DHT22;1521;53.584;9.938;2023-02-28T15:36:11;8.00;99.90
3023;DHT22;1521;53.584;9.938;2023-02-28T15:38:36;7.80;99.90
3023;DHT22;1521;53.584;9.938;2023-02-28T15:41:02;7.80;99.90
3023;DHT22;1521;53.584;9.938;2023-02-28T15:43:35;7.70;99.90
3023;DHT22;1521;53.584;9.938;2023-02-28T15:46:03;7.60;99.90
3023;DHT22;1521;53.584;9.938;2023-02-28T15:48:38;7.60;99.90
3023;DHT22;1521;53.584;9.938;2023-02-28T15:54:02;7.40;99.90
3023;DHT22;1521;53.584;9.938;2023-02-28T15:56:31;7.40;99.90
3023;DHT22;1521;53.584;9.938;2023-02-28T15:59:03;7.20;99.90
3023;DHT22;1521;53.584;9.938;2023-02-28T16:01:36;7.10;99.90
3023;DHT22;1521;53.584;9.938;2023-02-28T16:04:04;7.10;99.90
3023;DHT22;1521;53.584;9.938;2023-02-28T16:06:37;7.10;99.90
3023;DHT22;1521;53.584;9.938;2023-02-28T16:09:05;7.00;99.90
3023;DHT22;1521;53.584;9.938;2023-02-28T16:11:37;7.00;99.90
3023;DHT22;1521;53.584;9.938;2023-02-28T16:14:04;6.90;99.90
3023;DHT22;1521;53.584;9.938;2023-02-28T16:16:31;6.90;99.90
3023;DHT22;1521;53.584;9.938;2023-02-28T16:18:57;6.80;99.90
3023;DHT22;1521;53.584;9.938;2023-02-28T16:21:24;6.70;99.90
3023;DHT22;1521;53.584;9.938;2023-02-28T16:23:50;6.60;99.90
3023;DHT22;1521;53.584;9.938;2023-02-28T16:26:22;6.50;99.90
3023;DHT22;1521;53.584;9.938;2023-02-28T16:28:49;6.40;99.90
3023;DHT22;1521;53.584;9.938;2023-02-28T16:31:15;6.40;99.90
3023;DHT22;1521;53.584;9.938;2023-02-28T16:33:43;6.20;99.90
3023;DHT22;1521;53.584;9.938;2023-02-28T16:36:15;6.20;99.90
3023;DHT22;1521;53.584;9.938;2023-02-28T16:38:42;6.10;99.90
3023;DHT22;1521;53.584;9.938;2023-02-28T16:41:12;6.00;99.90
3023;DHT22;1521;53.584;9.938;2023-02-28T16:43:43;5.90;99.90
3023;DHT22;1521;53.584;9.938;2023-02-28T16:46:10;5.80;99.90
3023;DHT22;1521;53.584;9.938;2023-02-28T16:48:37;5.70;99.90
3023;DHT22;1521;53.584;9.938;2023-02-28T16:51:02;5.70;99.90
3023;DHT22;1521;53.584;9.938;2023-02-28T16:53:29;5.60;99.90
3023;DHT22;1521;53.584;9.938;2023-02-28T16:55:55;5.50;99.90
3023;DHT22;1521;53.584;9.938;2023-02-28T16:58:21;5.40;99.90
3023;DHT22;1521;53.584;9.938;2023-02-28T17:00:50;5.40;99.90
3023;DHT22;1521;53.584;9.938;2023-02-28T17:03:22;5.30;99.90
3023;DHT22;1521;53.584;9.938;2023-02-28T17:05:48;5.20;99.90
3023;DHT22;1521;53.584;9.938;2023-02-28T17:08:13;5.10;99.90
3023;DHT22;1521;53.584;9.938;2023-02-28T17:10:39;5.00;99.90
3023;DHT22;1521;53.584;9.938;2023-02-28T17:13:04;4.90;99.90
3023;DHT22;1521;53.584;9.938;2023-02-28T17:15:33;4.70;99.90
3023;DHT22;1521;53.584;9.938;2023-02-28T17:17:58;4.70;99.90
3023;DHT22;1521;53.584;9.938;2023-02-28T17:20:24;4.60;99.90
3023;DHT22;1521;53.584;9.938;2023-02-28T17:22:52;4.60;99.90
3023;DHT22;1521;53.584;9.938;2023-02-28T17:25:18;4.50;99.90
3023;DHT22;1521;53.584;9.938;2023-02-28T17:27:43;4.40;99.90
3023;DHT22;1521;53.584;9.938;2023-02-28T17:30:20;4.30;99.90
3023;DHT22;1521;53.584;9.938;2023-02-28T17:32:46;4.30;99.90
3023;DHT22;1521;53.584;9.938;2023-02-28T17:35:12;4.20;99.90
3023;DHT22;1521;53.584;9.938;2023-02-28T17:37:38;4.10;99.90
3023;DHT22;1521;53.584;9.938;2023-02-28T17:40:05;4.00;99.90
3023;DHT22;1521;53.584;9.938;2023-02-28T17:42:31;4.00;99.90
3023;DHT22;1521;53.584;9.938;2023-02-28T17:44:56;3.90;99.90
3023;DHT22;1521;53.584;9.938;2023-02-28T17:47:22;3.80;99.90
3023;DHT22;1521;53.584;9.938;2023-02-28T17:49:48;3.70;99.90
3023;DHT22;1521;53.584;9.938;2023-02-28T17:52:13;3.70;99.90
3023;DHT22;1521;53.584;9.938;2023-02-28T17:54:39;3.60;99.90
3023;DHT22;1521;53.584;9.938;2023-02-28T17:57:04;3.50;99.90
3023;DHT22;1521;53.584;9.938;2023-02-28T17:59:30;3.50;99.90
3023;DHT22;1521;53.584;9.938;2023-02-28T18:02:02;3.40;99.90
3023;DHT22;1521;53.584;9.938;2023-02-28T18:04:29;3.30;99.90
3023;DHT22;1521;53.584;9.938;2023-02-28T18:06:55;3.20;99.90
3023;DHT22;1521;53.584;9.938;2023-02-28T18:09:26;3.20;99.90
3023;DHT22;1521;53.584;9.938;2023-02-28T18:11:54;3.10;99.90
3023;DHT22;1521;53.584;9.938;2023-02-28T18:14:21;3.10;99.90
3023;DHT22;1521;53.584;9.938;2023-02-28T18:16:48;3.10;99.90
3023;DHT22;1521;53.584;9.938;2023-02-28T18:19:14;3.10;99.90
3023;DHT22;1521;53.584;9.938;2023-02-28T18:21:42;3.00;99.90
3023;DHT22;1521;53.584;9.938;2023-02-28T18:24:09;2.90;99.90
3023;DHT22;1521;53.584;9.938;2023-02-28T18:26:35;2.90;99.90
3023;DHT22;1521;53.584;9.938;2023-02-28T18:29:01;2.90;99.90
3023;DHT22;1521;53.584;9.938;2023-02-28T18:31:27;2.90;1.00
3023;DHT22;1521;53.584;9.938;2023-02-28T18:33:52;2.80;1.00
3023;DHT22;1521;53.584;9.938;2023-02-28T18:36:20;2.80;1.00
3023;DHT22;1521;53.584;9.938;2023-02-28T18:38:47;2.70;1.00
3023;DHT22;1521;53.584;9.938;2023-02-28T18:41:12;2.70;1.00
3023;DHT22;1521;53.584;9.938;2023-02-28T18:43:38;2.70;1.00
3023;DHT22;1521;53.584;9.938;2023-02-28T18:46:05;2.60;1.00